Time;durP1;ratioP1;P1;durP2;ratioP2;P2;SDS_P1;SDS_P2;PMS_P1;PMS_P2;Temp;Humidity;BMP_temperature;BMP_pressure;BME280_temperature;BME280_humidity;BME280_pressure;Samples;Min_cycle;Max_cycle;Signal;HPM_P1;HPM_P2
2023/10/04 00:01:50;;;;;;;7.35;2.45;;;17.00;99.90;;;;;;5072257;28;20021;-73
2023/10/04 00:04:16;;;;;;;7.07;2.35;;;17.20;99.90;;;;;;5072444;28;20044;-73
2023/10/04 00:06:42;;;;;;;7.43;2.40;;;17.20;99.90;;;;;;5072260;28;20025;-73
2023/10/04 00:09:11;;;;;;;9.70;2.88;;;17.30;99.90;;;;;;5072117;28;20024;-73
2023/10/04 00:11:37;;;;;;;8.45;2.75;;;17.30;99.90;;;;;;5072480;28;20021;-73
2023/10/04 00:14:03;;;;;;;8.00;2.58;;;17.40;99.90;;;;;;5072271;28;20401;-73
2023/10/04 00:16:29;;;;;;;8.70;2.60;;;17.40;99.90;;;;;;5072068;28;20628;-73
2023/10/04 00:18:54;;;;;;;7.97;2.78;;;17.20;99.90;;;;;;5072046;28;20064;-73
2023/10/04 00:21:20;;;;;;;7.30;2.40;;;17.10;99.90;;;;;;5071945;28;20409;-73
2023/10/04 00:23:46;;;;;;;9.02;2.85;;;17.00;99.90;;;;;;5071800;28;20478;-73
2023/10/04 00:26:11;;;;;;;7.55;2.58;;;17.00;99.90;;;;;;5071909;28;20447;-73
2023/10/04 00:28:40;;;;;;;7.10;2.72;;;16.80;99.90;;;;;;5072189;28;20419;-73
2023/10/04 00:31:06;;;;;;;7.20;2.78;;;16.70;99.90;;;;;;5070703;28;20450;-74
2023/10/04 00:33:32;;;;;;;10.18;2.55;;;16.60;99.90;;;;;;5071819;28;20060;-74
2023/10/04 00:36:03;;;;;;;9.45;3.03;;;16.50;99.90;;;;;;5071638;28;20070;-74
2023/10/04 00:38:30;;;;;;;9.77;2.58;;;16.30;99.90;;;;;;5071845;28;20040;-74
2023/10/04 00:40:56;;;;;;;8.65;2.80;;;16.30;99.90;;;;;;5075977;28;20444;-73
2023/10/04 00:43:22;;;;;;;7.68;2.75;;;16.20;99.90;;;;;;5075776;28;20025;-74
2023/10/04 00:45:49;;;;;;;8.48;3.05;;;16.30;99.90;;;;;;5075819;28;20094;-74
2023/10/04 00:48:23;;;;;;;9.55;2.55;;;16.30;99.90;;;;;;5075607;28;20448;-73
2023/10/04 00:50:49;;;;;;;5.55;2.20;;;16.20;99.90;;;;;;5075289;28;20375;-74
2023/10/04 00:53:22;;;;;;;7.03;2.60;;;16.30;99.90;;;;;;5075662;28;20042;-74
2023/10/04 00:55:50;;;;;;;7.45;2.83;;;16.20;99.90;;;;;;5075515;28;20685;-74
2023/10/04 00:58:19;;;;;;;8.55;2.70;;;16.10;99.90;;;;;;5075916;28;20043;-73
2023/10/04 01:00:47;;;;;;;7.78;2.60;;;16.10;99.90;;;;;;5075919;28;20154;-74
2023/10/04 01:03:15;;;;;;;6.72;2.22;;;16.10;99.90;;;;;;5075298;28;20055;-74
2023/10/04 01:05:49;;;;;;;8.65;2.50;;;16.10;99.90;;;;;;5074933;28;20071;-74
2023/10/04 01:08:15;;;;;;;8.50;2.55;;;16.00;99.90;;;;;;5075223;28;20043;-74
2023/10/04 01:10:44;;;;;;;7.97;3.08;;;15.90;99.90;;;;;;5073905;28;20031;-73
2023/10/04 01:13:11;;;;;;;10.32;3.30;;;15.90;99.90;;;;;;5075256;28;20032;-73
2023/10/04 01:15:39;;;;;;;7.63;2.92;;;15.70;99.90;;;;;;5075198;28;20482;-73
2023/10/04 01:18:12;;;;;;;10.02;2.95;;;15.80;99.90;;;;;;5075407;28;20107;-73
2023/10/04 01:20:39;;;;;;;7.60;2.87;;;15.70;99.90;;;;;;5075261;28;20056;-73
2023/10/04 01:23:10;;;;;;;8.82;2.88;;;15.90;99.90;;;;;;5075670;28;20149;-73
2023/10/04 01:25:41;;;;;;;7.90;2.67;;;16.20;99.90;;;;;;5073766;28;20060;-73
2023/10/04 01:28:12;;;;;;;9.52;2.65;;;16.30;99.90;;;;;;5074613;28;20465;-74
2023/10/04 01:30:59;;;;;;;7.32;2.70;;;16.40;99.90;;;;;;5075044;28;20033;-74
2023/10/04 01:33:25;;;;;;;8.70;2.95;;;16.40;99.90;;;;;;5075084;28;20024;-74
2023/10/04 01:35:55;;;;;;;9.52;3.05;;;16.50;99.90;;;;;;5075040;28;20029;-74
2023/10/04 01:38:25;;;;;;;10.30;3.15;;;16.40;99.90;;;;;;5075145;28;20445;-73
2023/10/04 01:40:53;;;;;;;9.50;2.88;;;16.30;99.90;;;;;;5074693;28;20028;-74
2023/10/04 01:43:19;;;;;;;6.65;2.53;;;16.40;99.90;;;;;;5074714;28;20039;-73
2023/10/04 01:45:50;;;;;;;9.93;2.92;;;16.40;99.90;;;;;;5073455;28;20367;-74
2023/10/04 01:48:17;;;;;;;8.07;2.70;;;16.40;99.90;;;;;;5074740;28;20470;-72
2023/10/04 01:50:44;;;;;;;10.23;3.20;;;16.40;99.90;;;;;;5074115;28;20029;-73
2023/10/04 01:53:10;;;;;;;8.27;2.45;;;16.30;99.90;;;;;;5074480;28;20054;-74
2023/10/04 01:55:36;;;;;;;5.50;2.78;;;16.30;99.90;;;;;;5074699;28;20024;-74
2023/10/04 01:58:05;;;;;;;8.57;2.90;;;16.10;99.90;;;;;;5074391;28;20043;-74
2023/10/04 02:00:33;;;;;;;8.52;2.50;;;15.90;99.90;;;;;;5074301;28;20426;-74
2023/10/04 02:02:59;;;;;;;8.70;2.78;;;15.60;99.90;;;;;;5074073;28;20521;-74
2023/10/04 02:05:28;;;;;;;8.02;2.80;;;15.50;99.90;;;;;;5073107;28;20028;-74
2023/10/04 02:07:56;;;;;;;11.70;3.35;;;15.40;99.90;;;;;;5074095;28;20039;-74
2023/10/04 02:10:22;;;;;;;5.88;2.50;;;15.30;99.90;;;;;;5074245;28;20111;-74
2023/10/04 02:12:50;;;;;;;8.90;2.83;;;15.30;99.90;;;;;;5074678;28;20104;-74
2023/10/04 02:15:17;;;;;;;7.75;2.63;;;15.20;99.90;;;;;;5074020;28;20483;-74
2023/10/04 02:17:44;;;;;;;9.32;3.03;;;15.10;99.90;;;;;;5073670;28;20047;-74
2023/10/04 02:20:24;;;;;;;9.38;3.20;;;15.10;99.90;;;;;;5073842;28;20028;-74
2023/10/04 02:22:56;;;;;;;9.80;2.70;;;15.10;99.90;;;;;;5074140;28;20375;-74
2023/10/04 02:25:22;;;;;;;7.78;2.58;;;15.00;99.90;;;;;;5073880;28;20103;-74
2023/10/04 02:27:51;;;;;;;7.45;2.67;;;14.90;99.90;;;;;;5073896;28;20052;-74
2023/10/04 02:30:26;;;;;;;7.78;2.88;;;15.00;99.90;;;;;;5073934;28;20025;-73
2023/10/04 02:32:52;;;;;;;7.30;2.65;;;14.90;99.90;;;;;;5073352;28;20028;-73
2023/10/04 02:35:26;;;;;;;7.30;2.40;;;14.90;99.90;;;;;;5073705;28;20372;-74
2023/10/04 02:37:54;;;;;;;8.45;2.38;;;15.00;99.90;;;;;;5073658;28;20036;-74
2023/10/04 02:40:27;;;;;;;8.27;3.00;;;14.90;99.90;;;;;;5074016;28;20028;-74
2023/10/04 02:42:54;;;;;;;4.67;2.60;;;14.90;99.90;;;;;;5073292;28;20028;-74
2023/10/04 02:45:21;;;;;;;7.53;2.58;;;15.00;99.90;;;;;;5073591;28;20028;-73
2023/10/04 02:47:49;;;;;;;6.32;2.50;;;14.90;99.90;;;;;;5073184;28;20483;-74
2023/10/04 02:50:17;;;;;;;7.93;2.58;;;14.80;99.90;;;;;;5073906;28;20032;-74
2023/10/04 02:52:44;;;;;;;5.70;2.63;;;14.70;99.90;;;;;;5073422;28;20032;-74
2023/10/04 02:55:15;;;;;;;7.35;2.70;;;14.90;99.90;;;;;;5073268;28;20070;-74
2023/10/04 02:57:41;;;;;;;5.65;2.38;;;15.10;99.90;;;;;;5072998;28;20029;-73
2023/10/04 03:00:15;;;;;;;7.60;2.80;;;15.20;99.90;;;;;;5073216;28;20029;-73
2023/10/04 03:02:42;;;;;;;6.70;2.67;;;15.30;99.90;;;;;;5072307;28;20032;-73
2023/10/04 03:05:09;;;;;;;6.93;2.78;;;15.30;99.90;;;;;;5073323;28;20032;-73
2023/10/04 03:07:34;;;;;;;7.57;3.00;;;15.20;99.90;;;;;;5073151;28;20027;-73
2023/10/04 03:10:00;;;;;;;7.25;2.60;;;15.30;99.90;;;;;;5073333;28;20099;-74
2023/10/04 03:12:27;;;;;;;6.85;2.40;;;15.10;99.90;;;;;;5072798;28;20017;-73
2023/10/04 03:14:52;;;;;;;6.93;2.70;;;15.00;99.90;;;;;;5072737;28;20098;-73
2023/10/04 03:17:19;;;;;;;6.28;2.75;;;15.00;99.90;;;;;;5073138;28;20021;-72
2023/10/04 03:19:47;;;;;;;8.25;2.78;;;15.10;99.90;;;;;;5073157;28;20057;-73
2023/10/04 03:22:18;;;;;;;6.82;2.45;;;15.00;99.90;;;;;;5073049;28;20036;-73
2023/10/04 03:24:45;;;;;;;7.82;2.60;;;14.90;99.90;;;;;;5072531;28;20028;-73
2023/10/04 03:27:21;;;;;;;6.60;2.75;;;14.60;99.90;;;;;;5072937;28;20094;-72
2023/10/04 03:29:51;;;;;;;8.00;2.97;;;14.40;99.90;;;;;;5072244;28;20043;-72
2023/10/04 03:32:18;;;;;;;6.93;2.40;;;14.30;99.90;;;;;;5072921;28;20509;-73
2023/10/04 03:34:44;;;;;;;6.35;2.70;;;14.00;99.90;;;;;;5073119;28;20032;-73
2023/10/04 03:37:20;;;;;;;6.93;2.80;;;13.90;99.90;;;;;;5072963;28;20031;-73
2023/10/04 03:39:46;;;;;;;4.60;2.40;;;13.80;99.90;;;;;;5072353;28;20035;-74
2023/10/04 03:42:12;;;;;;;6.47;2.60;;;13.70;99.90;;;;;;5072518;28;20017;-73
2023/10/04 03:44:37;;;;;;;6.68;3.15;;;13.60;99.90;;;;;;5072745;28;20482;-74
2023/10/04 03:47:03;;;;;;;8.15;2.70;;;13.50;99.90;;;;;;5072535;28;20021;-74
2023/10/04 03:49:29;;;;;;;6.15;2.50;;;13.50;99.90;;;;;;5072622;28;20119;-74
2023/10/04 03:51:56;;;;;;;7.43;2.67;;;13.50;99.90;;;;;;5072400;28;20034;-74
2023/10/04 03:54:22;;;;;;;7.35;2.70;;;13.40;99.90;;;;;;5072924;28;20036;-74
2023/10/04 03:56:47;;;;;;;7.82;2.75;;;13.30;99.90;;;;;;5072383;28;20123;-74
2023/10/04 03:59:13;;;;;;;9.25;2.88;;;13.30;99.90;;;;;;5071895;28;20036;-74
2023/10/04 04:01:39;;;;;;;6.80;2.72;;;13.20;99.90;;;;;;5072263;28;20021;-74
2023/10/04 04:04:06;;;;;;;7.95;2.75;;;13.20;99.90;;;;;;5072313;28;20029;-74
2023/10/04 04:06:32;;;;;;;4.70;2.42;;;13.10;99.90;;;;;;5072174;28;20025;-74
2023/10/04 04:09:01;;;;;;;5.05;2.85;;;13.10;99.90;;;;;;5072118;28;20032;-74
2023/10/04 04:11:27;;;;;;;7.32;3.00;;;13.10;99.90;;;;;;5072450;28;20521;-74
2023/10/04 04:13:55;;;;;;;6.22;2.80;;;13.10;99.90;;;;;;5071730;28;20025;-74
2023/10/04 04:16:20;;;;;;;6.10;2.85;;;13.10;99.90;;;;;;5072323;28;20085;-74
2023/10/04 04:18:54;;;;;;;7.85;2.83;;;12.90;99.90;;;;;;5072336;28;20041;-74
2023/10/04 04:21:20;;;;;;;7.22;2.53;;;12.90;99.90;;;;;;5072081;28;20033;-73
2023/10/04 04:23:46;;;;;;;5.38;2.60;;;12.80;99.90;;;;;;5071853;28;20559;-73
2023/10/04 04:26:12;;;;;;;6.72;2.85;;;12.80;99.90;;;;;;5072123;28;20092;-73
2023/10/04 04:28:38;;;;;;;6.72;2.40;;;12.80;99.90;;;;;;5071550;28;20136;-73
2023/10/04 04:31:19;;;;;;;6.68;2.72;;;13.00;99.90;;;;;;5071925;28;20493;-74
2023/10/04 04:33:45;;;;;;;5.82;2.38;;;13.10;99.90;;;;;;5071866;28;20037;-74
2023/10/04 04:36:26;;;;;;;7.10;2.92;;;13.20;99.90;;;;;;5072210;28;20497;-74
2023/10/04 04:38:53;;;;;;;5.13;2.80;;;13.30;99.90;;;;;;5071449;28;20243;-74
2023/10/04 04:41:25;;;;;;;7.38;3.00;;;13.30;99.90;;;;;;5072101;28;20104;-73
2023/10/04 04:43:51;;;;;;;6.63;2.60;;;13.30;99.90;;;;;;5071653;28;20043;-73
2023/10/04 04:46:18;;;;;;;9.18;3.47;;;13.40;99.90;;;;;;5072767;28;20028;-74
2023/10/04 04:48:46;;;;;;;7.00;3.05;;;13.40;99.90;;;;;;5071976;28;20025;-74
2023/10/04 04:51:12;;;;;;;6.72;2.78;;;13.40;99.90;;;;;;5072110;28;20552;-73
2023/10/04 04:53:42;;;;;;;6.30;2.72;;;13.30;99.90;;;;;;5071909;28;20029;-74
2023/10/04 04:56:13;;;;;;;7.50;2.65;;;13.20;99.90;;;;;;5071592;28;20557;-74
2023/10/04 04:58:49;;;;;;;6.43;2.97;;;13.10;99.90;;;;;;5071734;28;20039;-73
2023/10/04 05:01:17;;;;;;;7.18;2.78;;;12.90;99.90;;;;;;5072051;28;20021;-73
2023/10/04 05:03:45;;;;;;;8.43;3.20;;;12.80;99.90;;;;;;5071560;28;20036;-73
2023/10/04 05:06:20;;;;;;;5.60;2.78;;;12.60;99.90;;;;;;5071799;28;20029;-74
2023/10/04 05:08:46;;;;;;;7.07;3.00;;;12.50;99.90;;;;;;5071248;28;20458;-74
2023/10/04 05:11:12;;;;;;;6.07;2.90;;;12.40;99.90;;;;;;5071151;28;20040;-74
2023/10/04 05:13:39;;;;;;;7.78;3.13;;;12.30;99.90;;;;;;5071787;28;20028;-73
2023/10/04 05:16:05;;;;;;;6.38;2.88;;;12.30;99.90;;;;;;5071792;28;20020;-74
2023/10/04 05:18:31;;;;;;;7.75;3.10;;;12.30;99.90;;;;;;5071453;28;20083;-75
2023/10/04 05:20:58;;;;;;;7.53;3.05;;;12.10;99.90;;;;;;5071264;28;20107;-74
2023/10/04 05:23:25;;;;;;;5.43;2.83;;;12.10;99.90;;;;;;5073644;28;20043;-74
2023/10/04 05:25:52;;;;;;;5.20;2.85;;;12.00;99.90;;;;;;5093709;28;20028;-74
2023/10/04 05:28:19;;;;;;;4.57;2.67;;;12.00;99.90;;;;;;5095418;28;20040;-73
2023/10/04 05:30:46;;;;;;;7.78;2.65;;;12.00;99.90;;;;;;5095610;28;20493;-73
2023/10/04 05:33:16;;;;;;;6.57;2.72;;;12.10;99.90;;;;;;5095199;28;20027;-73
2023/10/04 05:35:44;;;;;;;4.95;2.92;;;12.20;99.90;;;;;;5095456;28;20069;-74
2023/10/04 05:38:11;;;;;;;7.40;2.83;;;12.20;99.90;;;;;;5094690;28;20043;-76
2023/10/04 05:40:39;;;;;;;6.43;2.65;;;12.10;99.90;;;;;;5094604;28;20061;-76
2023/10/04 05:43:08;;;;;;;6.57;2.95;;;12.00;99.90;;;;;;5094700;28;20057;-76
2023/10/04 05:45:36;;;;;;;7.78;3.05;;;11.90;99.90;;;;;;5095156;28;20033;-77
2023/10/04 05:48:04;;;;;;;10.85;2.95;;;12.00;99.90;;;;;;5095332;28;20500;-76
2023/10/04 05:50:32;;;;;;;10.20;2.92;;;11.90;99.90;;;;;;5095384;28;20492;-76
2023/10/04 05:53:05;;;;;;;10.68;3.10;;;11.80;99.90;;;;;;5094861;28;20089;-76
2023/10/04 05:55:32;;;;;;;5.50;2.70;;;11.90;99.90;;;;;;5094506;28;20486;-76
2023/10/04 05:57:58;;;;;;;9.45;3.00;;;11.90;99.90;;;;;;5095510;28;20109;-76
2023/10/04 06:00:42;;;;;;;6.63;2.92;;;11.80;99.90;;;;;;5094801;28;20482;-76
2023/10/04 06:03:11;;;;;;;7.03;2.90;;;11.80;99.90;;;;;;5094823;28;20111;-76
2023/10/04 06:05:38;;;;;;;4.85;3.15;;;12.00;99.90;;;;;;5094836;28;20466;-77
2023/10/04 06:08:21;;;;;;;5.80;3.17;;;12.10;99.90;;;;;;5094953;28;20027;-78
2023/10/04 06:10:48;;;;;;;6.60;2.90;;;12.30;99.90;;;;;;5094715;28;20486;-73
2023/10/04 06:13:17;;;;;;;7.25;2.55;;;12.30;99.90;;;;;;5094825;28;20028;-76
2023/10/04 06:15:48;;;;;;;8.93;2.90;;;12.30;99.90;;;;;;5094821;28;20077;-76
2023/10/04 06:18:16;;;;;;;7.13;2.75;;;12.40;99.90;;;;;;5094631;28;20031;-76
2023/10/04 06:20:43;;;;;;;6.45;2.80;;;12.60;99.90;;;;;;5094373;28;20040;-75
2023/10/04 06:23:10;;;;;;;5.90;2.88;;;12.60;99.90;;;;;;5094141;28;20027;-77
2023/10/04 06:25:41;;;;;;;5.57;2.72;;;12.60;99.90;;;;;;5094600;28;20047;-77
2023/10/04 06:28:07;;;;;;;7.63;3.28;;;12.60;99.90;;;;;;5094093;28;20043;-77
2023/10/04 06:30:34;;;;;;;7.65;2.85;;;12.70;99.90;;;;;;5094152;28;20036;-77
2023/10/04 06:33:01;;;;;;;6.68;3.30;;;12.70;99.90;;;;;;5094264;28;20035;-77
2023/10/04 06:35:28;;;;;;;5.95;3.47;;;12.40;99.90;;;;;;5094044;28;20020;-77
2023/10/04 06:37:59;;;;;;;8.32;3.22;;;12.30;99.90;;;;;;5094285;28;20120;-76
2023/10/04 06:40:26;;;;;;;6.07;3.08;;;12.30;99.90;;;;;;5094182;28;20027;-77
2023/10/04 06:42:55;;;;;;;8.43;2.90;;;12.10;99.90;;;;;;5094076;28;20028;-77
2023/10/04 06:45:26;;;;;;;8.60;3.10;;;12.10;99.90;;;;;;5094119;28;20101;-77
2023/10/04 06:47:53;;;;;;;9.25;3.50;;;12.00;99.90;;;;;;5094817;28;20016;-78
2023/10/04 06:50:28;;;;;;;7.82;3.47;;;12.10;99.90;;;;;;5093523;28;20032;-77
2023/10/04 06:52:54;;;;;;;7.85;3.80;;;12.10;99.90;;;;;;5093639;28;20028;-77
2023/10/04 06:55:20;;;;;;;6.82;3.53;;;12.10;99.90;;;;;;5092288;28;20061;-75
2023/10/04 06:57:47;;;;;;;9.68;3.75;;;12.20;99.90;;;;;;5093410;28;20056;-76
2023/10/04 07:00:15;;;;;;;9.52;4.35;;;12.20;99.90;;;;;;5093509;28;20025;-75
2023/10/04 07:02:46;;;;;;;7.22;3.80;;;12.20;99.90;;;;;;5093635;28;20367;-75
2023/10/04 07:05:19;;;;;;;9.88;4.03;;;12.30;99.90;;;;;;5093209;28;20020;-76
2023/10/04 07:07:46;;;;;;;6.88;3.40;;;12.40;99.90;;;;;;5092891;28;20498;-76
2023/10/04 07:10:20;;;;;;;7.43;3.20;;;12.40;99.90;;;;;;5093134;28;20101;-76
2023/10/04 07:12:51;;;;;;;8.18;3.28;;;12.50;99.90;;;;;;5093153;28;20051;-76
2023/10/04 07:15:18;;;;;;;9.57;3.17;;;12.50;99.90;;;;;;5093141;28;20039;-73
2023/10/04 07:17:44;;;;;;;7.10;2.90;;;12.60;99.90;;;;;;5093685;28;20036;-72
2023/10/04 07:20:15;;;;;;;7.28;3.28;;;12.80;99.90;;;;;;5093399;28;20023;-74
2023/10/04 07:22:47;;;;;;;6.43;3.25;;;13.00;99.90;;;;;;5093367;28;20119;-74
2023/10/04 07:25:14;;;;;;;6.88;3.10;;;13.00;99.90;;;;;;5093567;28;20028;-74
2023/10/04 07:27:47;;;;;;;5.40;3.17;;;13.00;99.90;;;;;;5093081;28;20047;-73
2023/10/04 07:30:14;;;;;;;24.30;4.25;;;13.10;99.90;;;;;;5092636;28;20447;-74
2023/10/04 07:32:44;;;;;;;7.93;2.70;;;13.20;99.90;;;;;;5093388;28;20028;-73
2023/10/04 07:35:16;;;;;;;6.85;2.50;;;13.40;99.90;;;;;;5092785;28;20115;-73
2023/10/04 07:37:43;;;;;;;6.53;3.03;;;13.40;99.90;;;;;;5092291;28;20039;-74
2023/10/04 07:40:10;;;;;;;10.15;3.42;;;13.70;99.90;;;;;;5092256;28;20093;-74
2023/10/04 07:42:45;;;;;;;25.55;5.25;;;14.10;99.90;;;;;;5092706;28;20024;-70
2023/10/04 07:45:12;;;;;;;18.75;3.15;;;14.40;99.90;;;;;;5092700;28;20394;-74
2023/10/04 07:47:41;;;;;;;9.00;3.00;;;14.60;99.90;;;;;;5091671;28;20035;-74
2023/10/04 07:50:12;;;;;;;7.18;2.72;;;14.70;99.90;;;;;;5091791;28;20020;-73
2023/10/04 07:52:38;;;;;;;4.75;2.53;;;14.80;99.90;;;;;;5091920;28;20024;-73
2023/10/04 07:55:05;;;;;;;8.98;3.00;;;14.90;99.90;;;;;;5091860;28;20038;-74
2023/10/04 07:57:41;;;;;;;15.32;3.20;;;15.00;99.90;;;;;;5091649;28;20032;-74
2023/10/04 08:00:11;;;;;;;8.48;3.22;;;15.10;99.90;;;;;;5091310;28;20521;-73
2023/10/04 08:02:37;;;;;;;6.40;2.90;;;15.10;99.90;;;;;;5091351;28;20024;-73
2023/10/04 08:05:06;;;;;;;5.55;2.70;;;15.10;99.90;;;;;;5091070;28;20368;-74
2023/10/04 08:07:32;;;;;;;6.32;2.80;;;15.20;99.90;;;;;;5091616;28;20031;-74
2023/10/04 08:09:58;;;;;;;9.07;3.17;;;15.30;99.90;;;;;;5091227;28;20016;-74
2023/10/04 08:12:26;;;;;;;7.57;3.20;;;15.40;99.90;;;;;;5091848;28;20521;-74
2023/10/04 08:14:56;;;;;;;10.98;3.85;;;15.40;99.90;;;;;;5091459;28;20600;-74
2023/10/04 08:17:23;;;;;;;7.03;3.40;;;15.40;99.90;;;;;;5091318;28;20035;-75
2023/10/04 08:19:49;;;;;;;9.43;3.85;;;15.40;99.90;;;;;;5091547;28;20100;-74
2023/10/04 08:22:15;;;;;;;6.30;3.10;;;15.30;99.90;;;;;;5091740;28;20107;-74
2023/10/04 08:24:42;;;;;;;6.15;2.95;;;15.10;99.90;;;;;;5091103;28;20498;-74
2023/10/04 08:27:09;;;;;;;9.43;3.30;;;15.20;99.90;;;;;;5091206;28;20155;-74
2023/10/04 08:29:36;;;;;;;6.65;3.53;;;15.10;99.90;;;;;;5091463;28;20073;-74
2023/10/04 08:32:03;;;;;;;6.15;3.20;;;15.10;99.90;;;;;;5091415;28;20034;-74
2023/10/04 08:34:29;;;;;;;8.40;3.22;;;15.10;99.90;;;;;;5091251;28;20401;-75
2023/10/04 08:36:56;;;;;;;29.85;7.15;;;15.00;99.90;;;;;;5091151;28;20032;-74
2023/10/04 08:39:22;;;;;;;72.60;12.00;;;15.10;99.90;;;;;;5091522;28;20074;-74
2023/10/04 08:41:48;;;;;;;95.50;15.10;;;15.00;99.90;;;;;;5091148;28;20048;-73
2023/10/04 08:44:14;;;;;;;411.52;62.70;;;15.00;99.90;;;;;;5091128;28;20525;-73
2023/10/04 08:46:43;;;;;;;137.50;20.92;;;15.20;99.90;;;;;;5091241;28;20048;-73
2023/10/04 08:49:10;;;;;;;362.23;52.92;;;15.10;99.90;;;;;;5089909;28;20032;-73
2023/10/04 08:52:06;;;;;;;184.73;26.73;;;15.10;99.90;;;;;;5090984;28;20070;-73
2023/10/04 08:54:32;;;;;;;110.85;17.88;;;15.20;99.90;;;;;;5090984;28;20028;-73
2023/10/04 08:57:04;;;;;;;71.70;12.65;;;15.20;99.90;;;;;;5091435;28;20028;-72
2023/10/04 08:59:33;;;;;;;260.10;32.83;;;15.40;99.90;;;;;;5090689;28;20081;-72
2023/10/04 09:02:01;;;;;;;50.22;8.57;;;15.60;99.90;;;;;;5094916;28;20052;-72
2023/10/04 09:04:28;;;;;;;47.70;7.88;;;15.60;99.90;;;;;;5094687;28;20099;-72
2023/10/04 09:06:54;;;;;;;460.55;61.83;;;15.50;99.90;;;;;;5094880;28;20032;-72
2023/10/04 09:09:20;;;;;;;172.02;23.20;;;15.60;99.90;;;;;;5094875;28;20057;-72
2023/10/04 09:11:46;;;;;;;98.25;16.02;;;15.90;99.90;;;;;;5094693;28;20036;-73
2023/10/04 09:14:14;;;;;;;39.10;7.10;;;16.30;99.90;;;;;;5094585;28;20020;-72
2023/10/04 09:16:40;;;;;;;39.95;7.90;;;16.60;99.90;;;;;;5094621;28;20521;-73
2023/10/04 09:19:07;;;;;;;20.05;5.50;;;16.80;99.90;;;;;;5094550;28;20028;-73
2023/10/04 09:21:36;;;;;;;10.27;3.38;;;17.10;99.90;;;;;;5094842;28;20024;-73
2023/10/04 09:24:16;;;;;;;20.83;4.90;;;17.30;99.90;;;;;;5094252;28;20038;-73
2023/10/04 09:26:56;;;;;;;108.22;16.30;;;17.40;99.90;;;;;;5094481;28;20016;-73
2023/10/04 09:29:36;;;;;;;761.03;107.25;;;17.50;99.90;;;;;;5094335;28;20109;-72
2023/10/04 09:32:03;;;;;;;73.00;12.98;;;17.60;99.90;;;;;;5094101;28;20032;-72
2023/10/04 09:34:30;;;;;;;154.32;23.13;;;17.60;99.90;;;;;;5094408;28;20032;-74
2023/10/04 09:36:56;;;;;;;73.65;12.43;;;17.80;99.90;;;;;;5094172;28;20028;-74
2023/10/04 09:39:24;;;;;;;64.68;11.68;;;18.00;99.90;;;;;;5094082;28;20039;-73
2023/10/04 09:41:54;;;;;;;21.77;5.75;;;18.10;99.90;;;;;;5094582;28;20031;-72
2023/10/04 09:44:29;;;;;;;23.10;5.65;;;18.20;99.90;;;;;;5092962;28;20040;-73
2023/10/04 09:47:02;;;;;;;10.02;3.90;;;18.30;99.90;;;;;;5093275;28;20024;-73
2023/10/04 09:49:31;;;;;;;8.80;4.15;;;18.20;99.90;;;;;;5094087;28;20032;-74
2023/10/04 09:52:03;;;;;;;7.05;3.22;;;18.20;99.90;;;;;;5094766;28;20020;-73
2023/10/04 09:54:30;;;;;;;7.53;3.40;;;18.00;99.90;;;;;;5092581;28;20593;-74
2023/10/04 09:56:56;;;;;;;8.38;3.40;;;17.80;99.90;;;;;;5093891;28;20048;-75
2023/10/04 09:59:23;;;;;;;7.80;3.35;;;17.70;99.90;;;;;;5094014;28;20039;-74
2023/10/04 10:01:57;;;;;;;5.88;3.13;;;17.60;99.90;;;;;;5093271;28;20020;-74
2023/10/04 10:04:23;;;;;;;;;;;17.60;99.90;;;;;;5094351;28;20060;-74
2023/10/04 10:07:16;;;;;;;7.28;4.53;;;17.60;99.90;;;;;;5093659;28;19904;-74
2023/10/04 10:10:05;;;;;;;8.82;4.18;;;17.70;99.90;;;;;;5093307;28;20032;-73
2023/10/04 10:12:35;;;;;;;6.22;4.07;;;18.00;99.90;;;;;;5093133;28;20028;-74
2023/10/04 10:15:07;;;;;;;10.00;4.00;;;18.00;99.90;;;;;;5093312;28;20024;-74
2023/10/04 10:17:35;;;;;;;8.15;4.03;;;18.10;99.90;;;;;;5093870;28;20020;-74
2023/10/04 10:20:02;;;;;;;7.57;3.97;;;18.10;99.90;;;;;;5093493;28;20032;-73
2023/10/04 10:22:28;;;;;;;7.30;4.78;;;18.30;99.90;;;;;;5093406;28;20069;-74
2023/10/04 10:24:56;;;;;;;7.47;4.65;;;18.30;99.90;;;;;;5093374;28;20032;-76
2023/10/04 10:27:28;;;;;;;8.93;4.68;;;18.30;99.90;;;;;;5091569;28;20481;-76
2023/10/04 10:30:02;;;;;;;7.05;4.30;;;18.10;99.90;;;;;;5092935;28;20134;-75
2023/10/04 10:32:28;;;;;;;8.68;3.97;;;18.00;99.90;;;;;;5093315;28;20402;-76
2023/10/04 10:35:12;;;;;;;8.18;4.20;;;18.00;99.90;;;;;;5093068;28;20398;-75
2023/10/04 10:37:38;;;;;;;7.90;4.28;;;18.20;99.90;;;;;;5092811;28;20024;-75
2023/10/04 10:40:21;;;;;;;8.20;4.60;;;18.40;99.90;;;;;;5093352;28;20043;-76
2023/10/04 10:43:07;;;;;;;6.35;3.85;;;18.80;99.90;;;;;;5093403;28;20032;-76
2023/10/04 10:45:33;;;;;;;10.35;5.63;;;19.20;99.90;;;;;;5092955;28;20035;-76
2023/10/04 10:48:00;;;;;;;9.35;5.20;;;19.30;99.90;;;;;;5092915;28;20024;-76
2023/10/04 10:50:39;;;;;;;12.45;6.82;;;19.40;99.90;;;;;;5093105;28;20412;-76
2023/10/04 10:53:10;;;;;;;12.40;8.40;;;19.60;99.90;;;;;;5092931;28;20027;-76
2023/10/04 10:55:40;;;;;;;23.15;16.08;;;19.80;99.90;;;;;;5092969;28;20402;-76
2023/10/04 10:58:09;;;;;;;12.70;7.95;;;19.90;99.90;;;;;;5092519;28;20047;-74
2023/10/04 11:00:37;;;;;;;9.32;5.88;;;20.20;99.90;;;;;;5092282;28;20035;-74
2023/10/04 11:03:10;;;;;;;11.52;5.35;;;20.30;99.90;;;;;;5092529;28;20469;-74
2023/10/04 11:05:36;;;;;;;9.60;5.68;;;20.40;99.90;;;;;;5092606;28;20486;-73
2023/10/04 11:08:07;;;;;;;7.45;4.18;;;20.50;99.90;;;;;;5091400;28;20047;-74
2023/10/04 11:10:38;;;;;;;9.20;5.22;;;20.50;99.90;;;;;;5092426;28;20038;-74
2023/10/04 11:13:08;;;;;;;13.73;7.38;;;20.50;99.90;;;;;;5092159;28;20032;-73
2023/10/04 11:15:36;;;;;;;10.75;5.40;;;20.60;99.90;;;;;;5091870;28;20031;-73
2023/10/04 11:18:02;;;;;;;7.68;3.50;;;20.70;99.90;;;;;;5092387;28;20440;-73
2023/10/04 11:20:31;;;;;;;9.73;4.03;;;20.70;99.90;;;;;;5092136;28;20063;-74
2023/10/04 11:22:57;;;;;;;7.95;3.38;;;20.50;99.90;;;;;;5090765;28;20028;-74
2023/10/04 11:25:23;;;;;;;5.28;3.08;;;20.40;99.90;;;;;;5073415;28;20044;-74
2023/10/04 11:27:51;;;;;;;5.63;3.10;;;20.30;99.90;;;;;;5071364;28;20048;-74
2023/10/04 11:30:18;;;;;;;6.53;3.60;;;20.50;99.90;;;;;;5071710;28;20093;-75
2023/10/04 11:32:46;;;;;;;6.05;3.28;;;20.40;99.90;;;;;;5070724;28;20091;-74
2023/10/04 11:35:13;;;;;;;6.85;2.92;;;20.40;99.90;;;;;;5071525;28;20096;-75
2023/10/04 11:37:43;;;;;;;5.80;3.22;;;20.40;99.90;;;;;;5071676;28;20020;-75
2023/10/04 11:40:11;;;;;;;5.95;2.72;;;20.60;99.90;;;;;;5071848;28;20032;-74
2023/10/04 11:42:38;;;;;;;6.18;2.97;;;20.70;99.90;;;;;;5071391;28;20021;-74
2023/10/04 11:45:18;;;;;;;6.40;3.20;;;20.90;99.90;;;;;;5071720;28;20029;-74
2023/10/04 11:47:45;;;;;;;4.97;2.90;;;20.90;99.90;;;;;;5071612;28;20426;-75
2023/10/04 11:50:11;;;;;;;7.10;3.22;;;20.80;99.90;;;;;;5071787;28;20498;-74
2023/10/04 11:52:39;;;;;;;5.00;3.10;;;20.70;99.90;;;;;;5071476;28;20032;-75
2023/10/04 11:55:22;;;;;;;4.72;2.78;;;20.80;99.90;;;;;;5071341;28;20379;-75
2023/10/04 11:57:48;;;;;;;6.03;3.20;;;20.80;99.90;;;;;;5070945;28;20550;-75
2023/10/04 12:00:19;;;;;;;6.47;3.00;;;20.80;99.90;;;;;;5071283;28;20305;-75
2023/10/04 12:02:45;;;;;;;5.28;3.00;;;20.80;99.90;;;;;;5071757;28;20075;-75
2023/10/04 12:05:12;;;;;;;5.38;2.63;;;20.90;99.90;;;;;;5071622;28;20486;-75
2023/10/04 12:07:37;;;;;;;6.22;2.60;;;21.10;99.90;;;;;;5071208;28;20051;-75
2023/10/04 12:10:05;;;;;;;6.72;2.95;;;21.40;99.90;;;;;;5071642;28;20037;-75
2023/10/04 12:12:31;;;;;;;4.97;2.78;;;21.60;99.90;;;;;;5071500;28;20049;-75
2023/10/04 12:14:57;;;;;;;4.72;2.78;;;21.80;99.90;;;;;;5071446;28;20052;-75
2023/10/04 12:17:24;;;;;;;4.28;2.63;;;21.90;99.90;;;;;;5070968;28;20546;-75
2023/10/04 12:19:50;;;;;;;4.60;2.63;;;22.10;99.90;;;;;;5069768;28;20044;-75
2023/10/04 12:22:16;;;;;;;4.55;2.78;;;22.20;99.90;;;;;;5071081;28;20021;-75
2023/10/04 12:24:44;;;;;;;4.68;2.47;;;22.30;99.90;;;;;;5083818;28;20031;-75
2023/10/04 12:27:14;;;;;;;4.43;2.50;;;22.50;99.90;;;;;;5091356;28;20437;-75
2023/10/04 12:29:40;;;;;;;4.10;2.50;;;22.50;99.90;;;;;;5091813;28;20086;-75
2023/10/04 12:32:09;;;;;;;4.70;2.53;;;22.50;99.90;;;;;;5091248;28;20028;-75
2023/10/04 12:34:35;;;;;;;3.80;2.50;;;22.60;99.90;;;;;;5093041;28;20032;-75
2023/10/04 12:37:01;;;;;;;3.58;2.50;;;22.60;99.90;;;;;;5095483;28;20032;-75
2023/10/04 12:39:27;;;;;;;3.85;2.40;;;22.70;99.90;;;;;;5095182;28;20035;-75
2023/10/04 12:41:55;;;;;;;7.03;2.45;;;22.70;99.90;;;;;;5095261;28;20047;-75
2023/10/04 12:44:23;;;;;;;6.75;2.65;;;22.80;99.90;;;;;;5095279;28;20032;-74
2023/10/04 12:46:48;;;;;;;4.75;2.58;;;23.00;99.90;;;;;;5095209;28;20025;-75
2023/10/04 12:49:19;;;;;;;4.43;2.90;;;22.90;99.90;;;;;;5095260;28;20036;-75
2023/10/04 12:51:48;;;;;;;4.72;2.60;;;22.90;99.90;;;;;;5095049;28;20020;-76
2023/10/04 12:54:16;;;;;;;5.22;2.58;;;22.80;99.90;;;;;;5094219;28;20028;-75